Time;durP1;ratioP1;P1;durP2;ratioP2;P2;SDS_P1;SDS_P2;PMS_P1;PMS_P2;Temp;Humidity;BMP_temperature;BMP_pressure;BME280_temperature;BME280_humidity;BME280_pressure;Samples;Min_cycle;Max_cycle;Signal;HPM_P1;HPM_P2
2023/05/12 00:01:21;;;;;;;1.05;0.90;;;;;;;9.27;100.00;97490.88;1699842;75;1796958;-75
2023/05/12 00:03:56;;;;;;;1.00;0.90;;;;;;;9.29;100.00;97486.47;1702084;75;868966;-75
2023/05/12 00:06:26;;;;;;;0.90;0.90;;;;;;;9.20;100.00;97483.81;1712779;75;735778;-75
2023/05/12 00:08:56;;;;;;;1.20;1.10;;;;;;;9.22;100.00;97489.56;1703729;75;751288;-74
2023/05/12 00:11:34;;;;;;;0.80;0.80;;;;;;;9.24;100.00;97491.84;1712777;75;675339;-75
2023/05/12 00:14:08;;;;;;;0.70;0.70;;;;;;;9.30;100.00;97498.13;1703676;75;753281;-74
2023/05/12 00:16:39;;;;;;;0.50;0.50;;;;;;;9.44;100.00;97486.44;1713115;75;687332;-78
2023/05/12 00:19:09;;;;;;;2.20;0.80;;;;;;;9.32;100.00;97484.75;1703606;75;771056;-74
2023/05/12 00:21:40;;;;;;;0.80;0.80;;;;;;;9.31;100.00;97486.00;1713004;75;672446;-76
2023/05/12 00:24:11;;;;;;;1.05;0.80;;;;;;;9.21;100.00;97488.03;1703895;75;756247;-74
2023/05/12 00:26:44;;;;;;;0.80;0.80;;;;;;;9.20;100.00;97481.09;1712754;75;738133;-78
2023/05/12 00:29:14;;;;;;;0.70;0.70;;;;;;;9.22;100.00;97484.09;1690729;75;1816236;-76
2023/05/12 00:31:44;;;;;;;0.70;0.70;;;;;;;9.26;100.00;97476.47;1712872;75;675031;-75
2023/05/12 00:34:14;;;;;;;0.75;0.70;;;;;;;9.18;100.00;97483.53;1701408;75;862178;-76
2023/05/12 00:36:44;;;;;;;0.60;0.60;;;;;;;9.13;100.00;97484.94;1713246;75;671435;-76
2023/05/12 00:39:14;;;;;;;0.70;0.70;;;;;;;9.22;100.00;97477.91;1702452;75;786532;-75
2023/05/12 00:41:48;;;;;;;0.50;0.50;;;;;;;9.34;100.00;97465.94;1674884;75;3889437;-75
2023/05/12 00:44:19;;;;;;;0.60;0.50;;;;;;;9.37;100.00;97467.72;1703380;75;778537;-75
2023/05/12 00:46:49;;;;;;;1.00;0.60;;;;;;;9.24;100.00;97468.00;1699497;75;1865860;-75
2023/05/12 00:49:20;;;;;;;1.25;0.60;;;;;;;9.17;100.00;97477.31;1703958;75;750664;-74
2023/05/12 00:51:50;;;;;;;0.60;0.60;;;;;;;9.30;100.00;97476.28;1713258;75;668506;-75
2023/05/12 00:54:21;;;;;;;0.60;0.60;;;;;;;9.33;100.00;97467.91;1691517;75;1779165;-74
2023/05/12 00:56:54;;;;;;;0.80;0.75;;;;;;;9.20;100.00;97472.88;1674113;75;3961867;-76
2023/05/12 00:59:24;;;;;;;0.55;0.55;;;;;;;9.22;100.00;97473.19;1703850;75;732370;-75
2023/05/12 01:01:54;;;;;;;0.60;0.60;;;;;;;9.16;100.00;97469.59;1712530;75;682286;-74
2023/05/12 01:04:25;;;;;;;0.70;0.70;;;;;;;9.22;100.00;97475.91;1653376;75;4927125;-76
2023/05/12 01:07:02;;;;;;;3.60;0.60;;;;;;;9.22;100.00;97469.69;1712472;75;676890;-76
2023/05/12 01:09:32;;;;;;;0.45;0.45;;;;;;;9.20;100.00;97472.88;1704356;75;723578;-76
2023/05/12 01:12:05;;;;;;;0.50;0.50;;;;;;;9.26;100.00;97468.28;1700600;75;1773871;-78
2023/05/12 01:14:37;;;;;;;0.55;0.55;;;;;;;9.20;100.00;97472.88;1704173;75;752909;-76
2023/05/12 01:17:15;;;;;;;0.60;0.60;;;;;;;9.21;100.00;97466.19;1713629;75;680240;-77
2023/05/12 01:19:51;;;;;;;0.60;0.60;;;;;;;9.20;100.00;97474.88;1704937;75;751216;-75
2023/05/12 01:22:22;;;;;;;0.50;0.50;;;;;;;9.25;100.00;97471.47;1697721;75;1714382;-74
2023/05/12 01:24:57;;;;;;;0.45;0.45;;;;;;;9.22;100.00;97473.19;1713729;75;670842;-76
2023/05/12 01:27:32;;;;;;;0.50;0.50;;;;;;;9.22;100.00;97466.97;1704975;75;679419;-79
2023/05/12 01:30:06;;;;;;;0.50;0.50;;;;;;;9.37;100.00;97462.25;1686179;75;2924242;-76
2023/05/12 01:32:37;;;;;;;1.25;0.50;;;;;;;9.24;100.00;97470.72;1702041;75;972159;-77
2023/05/12 01:35:08;;;;;;;0.50;0.50;;;;;;;9.23;100.00;97482.13;1698586;75;1945517;-74
2023/05/12 01:37:39;;;;;;;0.50;0.50;;;;;;;9.25;100.00;97477.69;1680788;75;2764735;-75
2023/05/12 01:40:11;;;;;;;0.50;0.50;;;;;;;9.20;100.00;97478.34;1699377;75;1870350;-75
2023/05/12 01:42:45;;;;;;;0.60;0.60;;;;;;;9.11;100.00;97483.91;1703657;75;850663;-76
2023/05/12 01:45:15;;;;;;;0.65;0.55;;;;;;;9.09;100.00;97472.69;1697887;75;1947183;-75
2023/05/12 01:47:45;;;;;;;0.30;0.30;;;;;;;9.06;100.00;97468.94;1704170;75;768597;-75
2023/05/12 01:50:23;;;;;;;0.50;0.50;;;;;;;9.12;100.00;97475.25;1713325;75;679504;-75
2023/05/12 01:52:54;;;;;;;0.50;0.50;;;;;;;9.15;100.00;97473.56;1703042;75;787895;-75
2023/05/12 01:55:24;;;;;;;0.45;0.45;;;;;;;9.08;100.00;97468.47;1712025;75;826327;-76
2023/05/12 01:57:57;;;;;;;0.40;0.40;;;;;;;9.10;100.00;97468.75;1704712;75;747629;-76
2023/05/12 02:00:27;;;;;;;0.50;0.50;;;;;;;9.16;100.00;97473.09;1617864;75;8722410;-76
2023/05/12 02:03:00;;;;;;;0.60;0.50;;;;;;;9.12;100.00;97469.03;1704569;75;743295;-75
2023/05/12 02:05:30;;;;;;;0.50;0.50;;;;;;;9.25;100.00;97469.50;1713839;75;672114;-76
2023/05/12 02:08:00;;;;;;;0.40;0.40;;;;;;;9.25;100.00;97464.03;1704236;75;744331;-75
2023/05/12 02:10:31;;;;;;;0.40;0.40;;;;;;;9.15;100.00;97466.09;1713614;75;679311;-75
2023/05/12 02:13:03;;;;;;;0.30;0.30;;;;;;;9.18;100.00;97467.16;1704028;75;743745;-76
2023/05/12 02:15:34;;;;;;;0.30;0.30;;;;;;;9.12;100.00;97463.56;1711373;75;846174;-75
2023/05/12 02:18:04;;;;;;;0.50;0.50;;;;;;;9.13;100.00;97465.06;1703192;75;801959;-76
2023/05/12 02:20:35;;;;;;;0.50;0.50;;;;;;;9.17;100.00;97463.66;1713063;75;673185;-74
2023/05/12 02:23:05;;;;;;;1.20;0.80;;;;;;;9.12;100.00;97463.56;1561698;67;12666333;-75
2023/05/12 02:25:35;;;;;;;1.05;0.60;;;;;;;9.18;100.00;97461.69;1711523;75;864679;-75
2023/05/12 02:28:09;;;;;;;0.40;0.40;;;;;;;9.34;100.00;97455.00;1634727;75;6531653;-75
2023/05/12 02:30:40;;;;;;;0.40;0.40;;;;;;;9.36;100.00;97455.28;1713250;75;675196;-78
2023/05/12 02:33:10;;;;;;;0.40;0.30;;;;;;;9.47;100.00;97455.44;1701711;75;929492;-75
2023/05/12 02:35:40;;;;;;;0.30;0.30;;;;;;;9.38;100.00;97450.09;1688164;75;2808023;-75
2023/05/12 02:38:10;;;;;;;0.35;0.35;;;;;;;9.23;100.00;97443.88;1679493;75;2788770;-75
2023/05/12 02:40:41;;;;;;;0.75;0.60;;;;;;;9.27;100.00;97441.72;1662449;75;4962346;-75
2023/05/12 02:43:13;;;;;;;0.30;0.30;;;;;;;9.38;100.00;97448.13;1702268;75;861111;-76
2023/05/12 02:45:44;;;;;;;0.40;0.30;;;;;;;9.47;100.00;97441.03;1637423;75;7033980;-76
2023/05/12 02:48:14;;;;;;;0.30;0.30;;;;;;;9.44;100.00;97440.00;1704874;75;728041;-77
2023/05/12 02:50:45;;;;;;;0.30;0.30;;;;;;;9.29;100.00;97442.75;1713363;75;685603;-75
2023/05/12 02:53:15;;;;;;;0.40;0.40;;;;;;;9.47;100.00;97436.31;1703669;75;751180;-76
2023/05/12 02:55:45;;;;;;;0.30;0.30;;;;;;;9.51;100.00;97447.81;1710714;75;893345;-75
2023/05/12 02:58:18;;;;;;;0.30;0.30;;;;;;;9.33;100.00;97448.00;1703910;75;744904;-79
2023/05/12 03:00:48;;;;;;;0.40;0.40;;;;;;;9.48;100.00;97448.78;1711514;75;820680;-75
2023/05/12 03:03:18;;;;;;;0.80;0.60;;;;;;;9.51;100.00;97447.06;1702453;75;855763;-78
2023/05/12 03:05:49;;;;;;;0.30;0.30;;;;;;;9.56;100.00;97447.16;1713373;75;671372;-75
2023/05/12 03:08:20;;;;;;;0.30;0.30;;;;;;;9.60;100.00;97449.69;1702406;75;858353;-76
2023/05/12 03:10:50;;;;;;;0.50;0.50;;;;;;;9.60;100.00;97442.25;1688418;75;2739472;-78
2023/05/12 03:13:24;;;;;;;0.30;0.30;;;;;;;9.62;100.00;97454.66;1704019;75;763230;-77
2023/05/12 03:15:54;;;;;;;0.40;0.40;;;;;;;9.58;100.00;97455.63;1665140;75;4716918;-79
2023/05/12 03:18:25;;;;;;;0.35;0.35;;;;;;;9.60;100.00;97449.69;1703270;75;759777;-81
2023/05/12 03:20:55;;;;;;;0.50;0.40;;;;;;;9.57;100.00;97450.63;1713530;75;675340;-76
2023/05/12 03:23:25;;;;;;;0.50;0.50;;;;;;;9.63;100.00;97451.47;1665635;75;3999431;-78
2023/05/12 03:25:55;;;;;;;0.45;0.45;;;;;;;9.56;100.00;97449.13;1688005;75;2815357;-77
2023/05/12 03:28:28;;;;;;;0.50;0.50;;;;;;;9.56;100.00;97451.88;1703677;75;754732;-79
2023/05/12 03:30:58;;;;;;;0.40;0.40;;;;;;;9.62;100.00;97452.72;1713721;75;676738;-76
2023/05/12 03:33:28;;;;;;;0.60;0.60;;;;;;;9.53;100.00;97458.28;1703936;75;750597;-77
2023/05/12 03:35:59;;;;;;;1.80;1.10;;;;;;;9.47;100.00;97454.69;1711024;75;877561;-77
2023/05/12 03:38:29;;;;;;;0.85;0.85;;;;;;;9.58;100.00;97452.16;1681220;75;2681050;-76
2023/05/12 03:41:06;;;;;;;1.35;0.95;;;;;;;9.64;100.00;97455.69;1713371;75;705460;-75
2023/05/12 03:43:39;;;;;;;0.70;0.70;;;;;;;9.72;100.00;97461.56;1704330;75;753194;-76
2023/05/12 03:46:09;;;;;;;0.40;0.40;;;;;;;9.73;100.00;97458.31;1713551;75;675875;-76
2023/05/12 03:48:40;;;;;;;0.70;0.40;;;;;;;9.72;100.00;97467.03;1704779;75;753619;-76
2023/05/12 03:51:10;;;;;;;0.40;0.40;;;;;;;9.70;100.00;97458.53;1711940;75;794483;-77
2023/05/12 03:53:44;;;;;;;0.30;0.30;;;;;;;9.65;100.00;97465.44;1692825;75;1674009;-76
2023/05/12 03:56:14;;;;;;;0.40;0.40;;;;;;;9.68;100.00;97463.72;1713046;75;676934;-78
2023/05/12 03:58:47;;;;;;;0.40;0.40;;;;;;;9.74;100.00;97465.31;1704887;75;741129;-76
2023/05/12 04:01:18;;;;;;;0.40;0.40;;;;;;;9.74;100.00;97468.06;1701682;75;1666955;-77
2023/05/12 04:03:48;;;;;;;0.50;0.50;;;;;;;9.75;100.00;97466.81;1700510;75;978334;-75
2023/05/12 04:06:18;;;;;;;0.30;0.30;;;;;;;9.72;100.00;97464.28;1712409;75;707679;-77
2023/05/12 04:08:48;;;;;;;0.40;0.40;;;;;;;9.69;100.00;97457.00;1701754;75;860903;-76
2023/05/12 04:11:18;;;;;;;0.40;0.40;;;;;;;9.69;100.00;97466.00;1712630;75;680823;-76
2023/05/12 04:13:51;;;;;;;0.50;0.50;;;;;;;9.70;100.00;97466.75;1703324;75;749492;-76
2023/05/12 04:16:21;;;;;;;0.50;0.50;;;;;;;9.64;100.00;97469.38;1712317;75;675508;-76
2023/05/12 04:18:51;;;;;;;0.40;0.40;;;;;;;9.68;100.00;97469.19;1701940;75;816570;-75
2023/05/12 04:21:22;;;;;;;0.40;0.40;;;;;;;9.65;100.00;97472.88;1710729;75;854680;-76
2023/05/12 04:23:54;;;;;;;0.60;0.60;;;;;;;9.66;100.00;97474.38;1703070;75;757046;-76
2023/05/12 04:26:25;;;;;;;0.30;0.30;;;;;;;9.61;100.00;97467.59;1700538;75;1719288;-75
2023/05/12 04:28:58;;;;;;;0.70;0.70;;;;;;;9.58;100.00;97472.03;1704070;75;746262;-75
2023/05/12 04:31:29;;;;;;;0.60;0.60;;;;;;;9.53;100.00;97478.16;1712164;75;687686;-76
2023/05/12 04:33:59;;;;;;;0.60;0.50;;;;;;;9.63;100.00;97480.78;1703701;75;740499;-74
2023/05/12 04:36:29;;;;;;;0.40;0.35;;;;;;;9.66;100.00;97485.31;1711873;75;756255;-75
2023/05/12 04:38:59;;;;;;;0.50;0.50;;;;;;;9.57;100.00;97486.94;1700992;75;934209;-75
2023/05/12 04:41:29;;;;;;;0.50;0.50;;;;;;;9.61;100.00;97484.00;1698472;75;1885200;-76
2023/05/12 04:44:02;;;;;;;0.40;0.40;;;;;;;9.65;100.00;97490.03;1700756;75;864735;-76
2023/05/12 04:46:32;;;;;;;0.50;0.50;;;;;;;9.70;100.00;97494.06;1698932;75;1820475;-75
2023/05/12 04:49:02;;;;;;;0.55;0.55;;;;;;;9.62;100.00;97496.44;1703106;75;735292;-75
2023/05/12 04:51:33;;;;;;;0.70;0.60;;;;;;;9.60;100.00;97494.19;1697609;75;1915868;-78
2023/05/12 04:54:04;;;;;;;0.85;0.85;;;;;;;9.45;100.00;97498.88;1702757;75;754863;-76
2023/05/12 04:56:34;;;;;;;0.90;0.90;;;;;;;9.22;100.00;97502.47;1698991;75;1795040;-74
2023/05/12 04:59:08;;;;;;;0.85;0.70;;;;;;;9.16;100.00;97499.63;1703507;75;731596;-77
2023/05/12 05:01:38;;;;;;;0.75;0.75;;;;;;;9.04;100.00;97501.41;1712151;75;673874;-74
2023/05/12 05:04:08;;;;;;;1.05;0.80;;;;;;;9.01;100.00;97499.63;1702860;75;741117;-74
2023/05/12 05:06:38;;;;;;;1.20;0.70;;;;;;;9.31;100.00;97503.13;1711485;75;679473;-73
2023/05/12 05:09:08;;;;;;;0.60;0.60;;;;;;;9.18;100.00;97500.66;1702716;75;765554;-76
2023/05/12 05:11:40;;;;;;;0.80;0.80;;;;;;;9.26;100.00;97503.03;1712292;75;674037;-77
2023/05/12 05:14:13;;;;;;;0.60;0.60;;;;;;;9.46;100.00;97502.38;1702866;75;744934;-76
2023/05/12 05:16:43;;;;;;;0.95;0.70;;;;;;;9.27;100.00;97499.09;1712101;75;681699;-76
2023/05/12 05:19:13;;;;;;;0.70;0.70;;;;;;;9.27;100.00;97501.81;1702536;75;742979;-76
2023/05/12 05:21:44;;;;;;;0.70;0.70;;;;;;;9.29;100.00;97500.13;1711676;75;673503;-78
2023/05/12 05:24:14;;;;;;;0.50;0.50;;;;;;;9.27;100.00;97504.53;1702743;75;740617;-75
2023/05/12 05:26:44;;;;;;;0.80;0.80;;;;;;;9.44;100.00;97511.03;1710839;75;738631;-75
2023/05/12 05:29:17;;;;;;;0.65;0.60;;;;;;;9.40;100.00;97502.28;1702211;75;749920;-76
2023/05/12 05:31:51;;;;;;;0.70;0.70;;;;;;;9.41;100.00;97508.50;1711923;75;671967;-77
2023/05/12 05:34:21;;;;;;;4.00;0.60;;;;;;;9.47;100.00;97518.28;1702184;75;758013;-76
2023/05/12 05:36:51;;;;;;;0.70;0.70;;;;;;;9.37;100.00;97509.44;1711709;75;674193;-77
2023/05/12 05:39:21;;;;;;;0.60;0.60;;;;;;;9.43;100.00;97517.75;1702338;75;753450;-76
2023/05/12 05:41:51;;;;;;;0.50;0.50;;;;;;;9.53;100.00;97521.88;1711471;75;671082;-75
2023/05/12 05:44:24;;;;;;;0.75;0.75;;;;;;;9.50;100.00;97517.38;1702894;75;746730;-76
2023/05/12 05:46:54;;;;;;;0.90;0.70;;;;;;;9.47;100.00;97514.81;1711738;75;668973;-78
2023/05/12 05:49:24;;;;;;;0.95;0.70;;;;;;;9.48;100.00;97516.34;1702775;75;745963;-76
2023/05/12 05:51:55;;;;;;;1.40;0.70;;;;;;;9.42;100.00;97518.94;1710750;75;706163;-76
2023/05/12 05:54:26;;;;;;;1.80;0.65;;;;;;;9.56;100.00;97523.66;1701762;75;753398;-76
2023/05/12 05:56:59;;;;;;;0.90;0.70;;;;;;;9.47;100.00;97526.50;1711934;75;678300;-78
2023/05/12 05:59:32;;;;;;;0.60;0.60;;;;;;;9.77;100.00;97518.28;1702593;75;771713;-76
2023/05/12 06:02:02;;;;;;;0.70;0.60;;;;;;;9.88;100.00;97525.91;1711990;75;682646;-76
2023/05/12 06:04:32;;;;;;;0.70;0.70;;;;;;;9.79;100.00;97524.78;1702349;75;734678;-76
2023/05/12 06:07:02;;;;;;;0.60;0.60;;;;;;;9.95;100.00;97539.94;1711538;75;674916;-74
2023/05/12 06:09:33;;;;;;;1.40;0.80;;;;;;;10.03;100.00;97532.84;1702486;75;753728;-76
2023/05/12 06:12:03;;;;;;;0.80;0.80;;;;;;;10.05;100.00;97532.38;1711432;75;671860;-74
2023/05/12 06:14:36;;;;;;;1.00;0.80;;;;;;;10.07;100.00;97535.38;1702563;75;744456;-75
2023/05/12 06:17:07;;;;;;;0.70;0.70;;;;;;;10.05;100.00;97542.56;1711428;75;674264;-77
2023/05/12 06:19:37;;;;;;;0.60;0.50;;;;;;;10.06;100.00;97547.56;1702934;75;759271;-75
2023/05/12 06:22:07;;;;;;;0.60;0.60;;;;;;;10.19;100.00;97549.97;1711818;75;677035;-77
2023/05/12 06:24:38;;;;;;;0.50;0.50;;;;;;;10.23;100.00;97551.28;1702461;75;736689;-75
2023/05/12 06:27:08;;;;;;;0.50;0.50;;;;;;;10.28;100.00;97552.63;1711750;75;684668;-75
2023/05/12 06:29:41;;;;;;;0.45;0.40;;;;;;;10.32;100.00;97555.94;1703236;75;745266;-75
2023/05/12 06:32:12;;;;;;;0.90;0.70;;;;;;;10.06;100.00;97555.78;1711800;75;676217;-76
2023/05/12 06:34:42;;;;;;;0.40;0.40;;;;;;;10.22;100.00;97563.47;1703136;75;742341;-75
2023/05/12 06:37:12;;;;;;;0.70;0.55;;;;;;;10.08;100.00;97558.78;1711801;75;681905;-76
2023/05/12 06:39:42;;;;;;;0.75;0.70;;;;;;;10.22;100.00;97560.75;1702652;75;764718;-77
2023/05/12 06:42:13;;;;;;;0.60;0.60;;;;;;;10.30;100.00;97563.84;1710868;75;722649;-75
2023/05/12 06:44:46;;;;;;;1.40;0.80;;;;;;;10.29;100.00;97561.59;1702558;75;744030;-78
2023/05/12 06:47:16;;;;;;;1.20;0.90;;;;;;;10.22;100.00;97565.44;1711255;75;678362;-75
2023/05/12 06:49:46;;;;;;;1.90;1.00;;;;;;;10.21;100.00;97561.94;1703115;75;735257;-77
2023/05/12 06:52:16;;;;;;;2.10;1.20;;;;;;;10.20;100.00;97568.66;1711233;75;678316;-74
2023/05/12 06:54:46;;;;;;;1.95;1.30;;;;;;;10.16;100.00;97567.34;1702320;75;747404;-77
2023/05/12 06:57:16;;;;;;;1.50;1.40;;;;;;;10.20;100.00;97567.91;1711455;75;679701;-76
2023/05/12 06:59:49;;;;;;;1.30;1.05;;;;;;;9.89;100.00;97571.91;1702864;75;749307;-74
2023/05/12 07:02:19;;;;;;;1.40;1.10;;;;;;;10.18;100.00;97562.91;1708598;75;947743;-74
2023/05/12 07:04:49;;;;;;;1.65;1.25;;;;;;;10.08;100.00;97566.22;1702935;75;758293;-75
2023/05/12 07:07:19;;;;;;;1.75;1.25;;;;;;;10.35;100.00;97565.16;1711922;75;682680;-77
2023/05/12 07:09:50;;;;;;;1.50;1.20;;;;;;;10.21;100.00;97558.47;1699962;75;927002;-76
2023/05/12 07:12:20;;;;;;;1.70;1.10;;;;;;;10.22;100.00;97557.22;1711285;75;684285;-76
2023/05/12 07:14:53;;;;;;;1.75;1.30;;;;;;;10.34;100.00;97556.22;1702881;75;766720;-79
2023/05/12 07:17:23;;;;;;;0.90;0.80;;;;;;;10.49;100.00;97558.16;1708766;75;943167;-77
2023/05/12 07:19:53;;;;;;;0.70;0.70;;;;;;;10.15;100.00;97555.66;1702741;75;745361;-76
2023/05/12 07:22:23;;;;;;;0.95;0.70;;;;;;;10.51;100.00;97563.88;1698708;75;1735155;-76
2023/05/12 07:24:54;;;;;;;0.70;0.50;;;;;;;10.78;100.00;97560.75;1702085;75;744571;-75
2023/05/12 07:27:24;;;;;;;0.65;0.55;;;;;;;10.82;100.00;97564.06;1711508;75;674429;-78
2023/05/12 07:29:57;;;;;;;0.55;0.55;;;;;;;10.98;100.00;97556.50;1702387;75;752170;-78
2023/05/12 07:32:27;;;;;;;0.70;0.70;;;;;;;10.95;100.00;97562.94;1711466;75;673990;-75
2023/05/12 07:34:57;;;;;;;1.55;0.90;;;;;;;11.00;100.00;97560.25;1702583;75;741869;-75
2023/05/12 07:37:28;;;;;;;0.85;0.70;;;;;;;10.93;100.00;97557.94;1711679;75;684549;-76
2023/05/12 07:39:58;;;;;;;0.90;0.55;;;;;;;11.16;100.00;97555.44;1702803;75;742589;-77
2023/05/12 07:42:28;;;;;;;0.50;0.50;;;;;;;11.24;100.00;97567.50;1671299;75;4057883;-75
2023/05/12 07:45:01;;;;;;;0.70;0.50;;;;;;;11.50;100.00;97560.03;1702481;75;758996;-75
2023/05/12 07:47:31;;;;;;;0.30;0.30;;;;;;;11.49;100.00;97555.03;1711498;75;677969;-78
2023/05/12 07:50:02;;;;;;;0.40;0.40;;;;;;;11.57;100.00;97555.34;1700188;75;913857;-75
2023/05/12 07:52:32;;;;;;;0.40;0.40;;;;;;;11.80;100.00;97559.03;1697684;75;1873708;-76
2023/05/12 07:55:02;;;;;;;0.40;0.40;;;;;;;12.00;100.00;97561.75;1690970;75;1681199;-79
2023/05/12 07:57:32;;;;;;;0.35;0.30;;;;;;;11.93;100.00;97559.44;1710497;75;797469;-76
2023/05/12 08:00:05;;;;;;;0.30;0.30;;;;;;;11.93;100.00;97565.69;1676185;75;2885114;-76
2023/05/12 08:02:36;;;;;;;0.50;0.30;;;;;;;11.94;100.00;97561.69;1711662;75;673327;-74
2023/05/12 08:05:06;;;;;;;0.30;0.30;;;;;;;12.14;100.00;97563.56;1701263;75;804775;-75
2023/05/12 08:07:37;;;;;;;0.30;0.30;;;;;;;12.37;100.00;97555.50;1711686;75;677676;-74
2023/05/12 08:10:08;;;;;;;0.40;0.40;;;;;;;12.00;100.00;97556.25;1699107;75;986626;-75
2023/05/12 08:12:39;;;;;;;1.40;0.60;;;;;;;12.17;100.00;97563.84;1711344;75;719128;-77
2023/05/12 08:15:13;;;;;;;0.55;0.40;;;;;;;12.41;100.00;97555.25;1702033;75;735408;-76
2023/05/12 08:17:43;;;;;;;0.30;0.30;;;;;;;12.40;100.00;97557.25;1698795;75;1787384;-76
2023/05/12 08:20:14;;;;;;;0.65;0.30;;;;;;;12.41;100.00;97560.75;1702122;75;756305;-75
2023/05/12 08:22:46;;;;;;;0.65;0.45;;;;;;;12.56;100.00;97558.59;1710028;75;760039;-77
2023/05/12 08:25:16;;;;;;;0.70;0.60;;;;;;;12.58;100.00;97564.34;1699440;75;964761;-75
2023/05/12 08:27:47;;;;;;;0.30;0.30;;;;;;;12.68;100.00;97562.91;1711802;75;678347;-76
2023/05/12 08:30:20;;;;;;;0.90;0.40;;;;;;;12.57;100.00;97562.84;1702230;75;746895;-76
2023/05/12 08:32:51;;;;;;;0.50;0.40;;;;;;;12.65;100.00;97563.13;1711572;75;669829;-74
2023/05/12 08:35:22;;;;;;;1.25;0.50;;;;;;;12.49;100.00;97576.28;1702157;75;748071;-76
2023/05/12 08:37:52;;;;;;;0.30;0.30;;;;;;;12.57;100.00;97571.81;1710828;75;676874;-74
2023/05/12 08:40:25;;;;;;;0.30;0.30;;;;;;;12.82;100.00;97574.19;1698812;75;963009;-75
2023/05/12 08:43:09;;;;;;;0.30;0.30;;;;;;;12.25;100.00;97573.88;1711864;75;688184;-75
2023/05/12 08:45:43;;;;;;;0.50;0.30;;;;;;;12.61;100.00;97582.59;1671236;75;3108631;-75
2023/05/12 08:48:15;;;;;;;0.40;0.30;;;;;;;11.89;100.00;97578.84;1709288;75;764698;-76
2023/05/12 08:50:51;;;;;;;0.60;0.50;;;;;;;11.84;100.00;97587.03;1700291;75;833717;-78
2023/05/12 08:53:23;;;;;;;0.20;0.20;;;;;;;12.26;100.00;97588.34;1700356;75;872512;-76
2023/05/12 08:55:54;;;;;;;0.20;0.20;;;;;;;12.29;100.00;97590.88;1709554;75;772824;-75
2023/05/12 08:58:24;;;;;;;0.30;0.20;;;;;;;12.25;100.00;97587.59;1687909;75;1901897;-77
2023/05/12 09:00:59;;;;;;;0.30;0.30;;;;;;;12.32;100.00;97589.91;1710839;75;676415;-75
2023/05/12 09:03:30;;;;;;;;;;;;;;;12.35;100.00;97588.16;1701060;75;917307;-74
2023/05/12 09:06:01;;;;;;;0.30;0.30;;;;;;;11.80;100.00;97592.72;1708433;75;954513;-76
2023/05/12 09:08:33;;;;;;;0.50;0.50;;;;;;;11.54;100.00;97594.72;1701196;75;858136;-76
2023/05/12 09:11:10;;;;;;;0.30;0.30;;;;;;;12.12;100.00;97596.25;1707577;75;1002281;-76
2023/05/12 09:13:50;;;;;;;0.70;0.50;;;;;;;12.22;100.00;97599.56;1703191;75;670665;-79
2023/05/12 09:16:27;;;;;;;0.40;0.40;;;;;;;12.21;100.00;97600.06;1706807;75;2850732;-72
2023/05/12 09:19:01;;;;;;;0.30;0.20;;;;;;;12.33;100.00;97601.63;1695076;75;1969814;-77
2023/05/12 09:21:32;;;;;;;0.60;0.40;;;;;;;11.88;100.00;97602.06;1688762;75;1866544;-78
2023/05/12 09:24:05;;;;;;;0.80;0.60;;;;;;;11.75;100.00;97601.63;1707902;75;979634;-76
2023/05/12 09:26:49;;;;;;;0.35;0.30;;;;;;;11.91;100.00;97601.06;1702480;75;701678;-75
2023/05/12 09:29:20;;;;;;;0.40;0.40;;;;;;;11.62;100.00;97593.81;1709252;75;926508;-79
2023/05/12 09:31:58;;;;;;;1.05;0.65;;;;;;;11.66;100.00;97593.56;1702210;75;775044;-80
2023/05/12 09:34:31;;;;;;;1.10;0.80;;;;;;;11.83;100.00;97593.72;1702350;75;809079;-75
2023/05/12 09:37:03;;;;;;;0.90;0.65;;;;;;;11.55;100.00;97593.47;1711188;75;676703;-77
2023/05/12 09:39:34;;;;;;;1.00;0.60;;;;;;;11.71;100.00;97590.91;1700207;75;929256;-73
2023/05/12 09:42:05;;;;;;;0.70;0.50;;;;;;;12.30;100.00;97592.38;1708039;75;966454;-74
2023/05/12 09:44:36;;;;;;;0.30;0.30;;;;;;;12.51;100.00;97582.03;1698969;75;865537;-74
2023/05/12 09:47:14;;;;;;;0.80;0.40;;;;;;;12.18;100.00;97587.31;1708565;75;893610;-79
2023/05/12 09:49:54;;;;;;;0.30;0.30;;;;;;;13.00;100.00;97582.75;1703398;75;678482;-74
2023/05/12 09:52:24;;;;;;;0.40;0.40;;;;;;;12.89;100.00;97584.72;1711283;75;674566;-75
2023/05/12 09:54:54;;;;;;;0.25;0.25;;;;;;;13.40;100.00;97580.19;1702100;75;735745;-75
2023/05/12 09:57:28;;;;;;;0.25;0.25;;;;;;;13.53;100.00;97583.19;1708117;75;935310;-79
2023/05/12 09:59:58;;;;;;;0.90;0.40;;;;;;;13.53;100.00;97588.69;1698706;75;981087;-78
2023/05/12 10:02:32;;;;;;;3.15;0.50;;;;;;;13.55;100.00;97586.19;1710920;75;710896;-73
2023/05/12 10:05:07;;;;;;;0.20;0.20;;;;;;;13.74;100.00;97583.72;1701928;75;741748;-75
2023/05/12 10:07:38;;;;;;;0.30;0.20;;;;;;;13.76;100.00;97588.75;1705924;75;680021;-73
2023/05/12 10:10:11;;;;;;;0.20;0.20;;;;;;;13.62;100.00;97587.72;1707479;75;985254;-73
2023/05/12 10:12:42;;;;;;;5.80;0.50;;;;;;;13.61;100.00;97591.69;1702862;75;680729;-74
2023/05/12 10:15:14;;;;;;;1.30;0.30;;;;;;;13.29;100.00;97591.88;1710001;75;672320;-76
2023/05/12 10:17:48;;;;;;;0.50;0.30;;;;;;;13.52;100.00;97589.19;1703103;75;679044;-78
2023/05/12 10:20:19;;;;;;;0.50;0.30;;;;;;;13.58;100.00;97592.69;1711613;75;673305;-74
2023/05/12 10:22:50;;;;;;;;;;;;;;;13.38;100.00;97597.16;1677793;75;2911364;-75
2023/05/12 10:25:21;;;;;;;0.30;0.30;;;;;;;13.16;100.00;97595.06;1710075;75;804287;-76
2023/05/12 10:27:53;;;;;;;0.20;0.20;;;;;;;12.94;100.00;97592.22;1703925;75;675850;-74
2023/05/12 10:30:24;;;;;;;0.30;0.20;;;;;;;13.26;100.00;97592.09;1710860;75;695161;-74
2023/05/12 10:32:57;;;;;;;0.10;0.10;;;;;;;13.12;100.00;97602.06;1703474;75;675587;-77
2023/05/12 10:35:36;;;;;;;0.60;0.40;;;;;;;12.62;100.00;97600.56;1710848;75;681614;-74
2023/05/12 10:38:11;;;;;;;0.35;0.10;;;;;;;12.95;100.00;97596.47;1702165;75;748375;-73
2023/05/12 10:40:56;;;;;;;0.10;0.10;;;;;;;12.91;100.00;97593.97;1711051;75;681965;-74
2023/05/12 10:43:28;;;;;;;0.30;0.30;;;;;;;12.89;100.00;97595.69;1702077;75;738804;-74
2023/05/12 10:46:19;;;;;;;0.20;0.20;;;;;;;12.83;100.00;97592.19;1711308;75;679338;-75
2023/05/12 10:48:58;;;;;;;0.30;0.30;;;;;;;12.69;100.00;97602.84;1701939;75;750376;-74
2023/05/12 10:51:31;;;;;;;0.60;0.30;;;;;;;12.45;100.00;97602.47;1703397;75;680428;-75
2023/05/12 10:54:04;;;;;;;0.40;0.35;;;;;;;12.65;100.00;97607.06;1711273;75;676278;-75
2023/05/12 10:56:45;;;;;;;0.30;0.30;;;;;;;12.58;100.00;97608.28;1703021;75;682090;-74
2023/05/12 10:59:19;;;;;;;0.45;0.30;;;;;;;12.93;100.00;97607.22;1710851;75;682530;-74
2023/05/12 11:02:04;;;;;;;0.50;0.40;;;;;;;13.00;100.00;97618.47;1702883;75;678706;-75
2023/05/12 11:04:51;;;;;;;0.85;0.50;;;;;;;12.87;100.00;97609.94;1703211;75;711776;-79
2023/05/12 11:07:26;;;;;;;0.40;0.30;;;;;;;13.06;100.00;97607.53;1711118;75;691940;-77
2023/05/12 11:09:57;;;;;;;0.50;0.30;;;;;;;12.69;100.00;97611.09;1702188;75;758348;-74
2023/05/12 11:12:31;;;;;;;0.70;0.30;;;;;;;13.05;100.00;97614.25;1710414;75;754833;-77
2023/05/12 11:15:03;;;;;;;0.20;0.20;;;;;;;12.93;100.00;97607.97;1702612;75;754673;-78
2023/05/12 11:17:33;;;;;;;0.40;0.40;;;;;;;12.43;100.00;97615.91;1708260;75;963751;-73
2023/05/12 11:20:08;;;;;;;0.30;0.30;;;;;;;12.78;100.00;97602.66;1700101;75;911590;-74
2023/05/12 11:22:39;;;;;;;0.30;0.30;;;;;;;12.94;100.00;97603.22;1707932;75;962406;-76
2023/05/12 11:25:16;;;;;;;0.25;0.25;;;;;;;12.80;100.00;97604.91;1700941;75;826630;-74
2023/05/12 11:27:50;;;;;;;0.20;0.20;;;;;;;12.88;100.00;97613.44;1701710;75;760079;-76
2023/05/12 11:30:20;;;;;;;0.30;0.30;;;;;;;13.01;100.00;97602.75;1711025;75;676309;-77
2023/05/12 11:32:50;;;;;;;;;;;;;;;13.00;100.00;97610.25;1699167;75;984347;-75
2023/05/12 11:35:23;;;;;;;0.20;0.20;;;;;;;13.05;100.00;97611.50;1711246;75;672101;-76
2023/05/12 11:37:53;;;;;;;0.30;0.30;;;;;;;13.10;100.00;97616.28;1703420;75;677494;-75
2023/05/12 11:40:25;;;;;;;0.40;0.30;;;;;;;13.02;100.00;97615.25;1708148;75;954734;-73
2023/05/12 11:42:55;;;;;;;0.30;0.30;;;;;;;13.33;100.00;97614.41;1703342;75;679621;-74